This is the latest recevied weather packets stored in our database for station/object 9W2CHF-4. If no packets are shown the sender has not sent any weather packets the latest 1 day(s).
| Time | Temp. | Humidity | Pressure | Rain* | Wind** | Luminosity | Snow |
|---|---|---|---|---|---|---|---|
| 1777923514 | 31.67° C | 81% | 1009.5 hPa | - | - | - | - |
| 1777922614 | 31.67° C | 80% | 1009.7 hPa | - | - | - | - |
| 1777921714 | 31.67° C | 80% | 1009.9 hPa | - | - | - | - |
| 1777920814 | 31.67° C | 80% | 1009.9 hPa | - | - | - | - |
| 1777919914 | 32.22° C | 80% | 1010.1 hPa | - | - | - | - |
| 1777919014 | 32.22° C | 79% | 1010.3 hPa | - | - | - | - |
| 1777918114 | 32.22° C | 79% | 1010.5 hPa | - | - | - | - |
| 1777917214 | 32.22° C | 80% | 1010.7 hPa | - | - | - | - |
| 1777916314 | 32.22° C | 80% | 1010.8 hPa | - | - | - | - |
| 1777915414 | 32.22° C | 79% | 1011 hPa | - | - | - | - |
| 1777914514 | 32.22° C | 79% | 1011.2 hPa | - | - | - | - |
| 1777913613 | 32.22° C | 79% | 1011.4 hPa | - | - | - | - |
| 1777912713 | 32.22° C | 81% | 1011.5 hPa | - | - | - | - |
| 1777911813 | 32.22° C | 81% | 1011.5 hPa | - | - | - | - |
| 1777910913 | 32.78° C | 80% | 1011.5 hPa | - | - | - | - |
| 1777910013 | 32.78° C | 82% | 1011.5 hPa | - | - | - | - |
| 1777909113 | 31.67° C | 88% | 1011.5 hPa | - | - | - | - |
| 1777908213 | 32.22° C | 86% | 1011.5 hPa | - | - | - | - |
| 1777907312 | 32.22° C | 86% | 1011.3 hPa | - | - | - | - |
| 1777906412 | 32.22° C | 84% | 1011.1 hPa | - | - | - | - |
| 1777905512 | 31.67° C | 84% | 1011 hPa | - | - | - | - |
| 1777904612 | 32.22° C | 80% | 1011 hPa | - | - | - | - |
| 1777903712 | 32.78° C | 79% | 1011.1 hPa | - | - | - | - |
| 1777902811 | 32.78° C | 79% | 1010.9 hPa | - | - | - | - |
| 1777901911 | 32.22° C | 83% | 1010.7 hPa | - | - | - | - |
* Rain since midnight (hover to see other rain measurements)
** Current wind speed in m/s (hover to see current wind gust speed)